createdAt,value
2019-03-29T00:02:18.962Z,77.26
2019-03-29T00:08:19.047Z,77.39
2019-03-29T00:14:18.970Z,77.99
2019-03-29T00:20:21.788Z,77.90
2019-03-29T00:26:18.969Z,77.81
2019-03-29T00:32:19.019Z,77.88
2019-03-29T00:38:18.996Z,78.51
2019-03-29T00:44:18.978Z,79.17
2019-03-29T00:50:18.996Z,80.34
2019-03-29T00:56:19.018Z,80.53
2019-03-29T01:02:19.079Z,80.71
2019-03-29T01:08:19.032Z,80.97
2019-03-29T01:14:19.003Z,81.22
2019-03-29T01:20:19.003Z,82.06
2019-03-29T01:26:18.977Z,82.74
2019-03-29T01:32:19.036Z,82.73
2019-03-29T01:38:22.298Z,83.70
2019-03-29T01:44:19.018Z,83.49
2019-03-29T01:50:19.022Z,83.47
2019-03-29T01:56:19.017Z,83.69
2019-03-29T02:02:20.264Z,84.20
2019-03-29T02:08:19.054Z,84.76
2019-03-29T02:14:19.040Z,85.07
2019-03-29T02:20:19.034Z,85.05
2019-03-29T02:26:19.051Z,85.96
2019-03-29T02:32:19.045Z,86.52
2019-03-29T02:38:19.045Z,86.19
2019-03-29T02:44:19.076Z,86.81
2019-03-29T02:50:19.023Z,86.61
2019-03-29T02:56:19.026Z,86.84
2019-03-29T03:02:18.997Z,87.31
2019-03-29T03:08:19.063Z,87.57
2019-03-29T03:14:19.108Z,88.15
2019-03-29T03:20:19.065Z,87.83
2019-03-29T03:26:19.083Z,88.68
2019-03-29T03:32:19.088Z,88.95
2019-03-29T03:38:19.051Z,89.26
2019-03-29T03:44:19.074Z,89.67
2019-03-29T03:50:19.109Z,90.00
2019-03-29T03:56:19.076Z,90.24
2019-03-29T04:02:19.077Z,90.31
2019-03-29T04:08:19.115Z,90.14
2019-03-29T04:14:19.186Z,90.35
2019-03-29T04:20:19.097Z,90.08
2019-03-29T04:26:19.094Z,90.63
2019-03-29T04:32:19.100Z,90.29
2019-03-29T04:38:19.102Z,91.08
2019-03-29T04:44:19.134Z,90.43
2019-03-29T04:50:19.077Z,89.88
2019-03-29T04:56:19.088Z,89.99
2019-03-29T05:02:19.103Z,90.14
2019-03-29T05:08:19.262Z,90.11
2019-03-29T05:14:19.079Z,90.07
2019-03-29T05:20:19.097Z,90.32
2019-03-29T05:26:19.169Z,89.95
2019-03-29T05:32:19.126Z,89.95
2019-03-29T05:38:19.121Z,89.75
2019-03-29T05:44:19.146Z,88.75
2019-03-29T05:50:19.117Z,88.29
2019-03-29T05:56:19.118Z,87.66
2019-03-29T06:02:19.130Z,87.80
2019-03-29T06:08:19.163Z,86.92
2019-03-29T06:14:19.326Z,86.62
2019-03-29T06:20:19.160Z,85.27
2019-03-29T06:26:19.152Z,84.68
2019-03-29T06:32:19.240Z,83.33
2019-03-29T06:38:19.135Z,83.04
2019-03-29T06:44:19.126Z,81.79
2019-03-29T06:50:19.180Z,81.03
2019-03-29T06:56:19.149Z,80.23
2019-03-29T07:02:19.174Z,79.54
2019-03-29T07:08:19.197Z,78.05
2019-03-29T07:14:19.273Z,76.10
2019-03-29T07:23:11.203Z,72.02
2019-03-29T07:29:11.338Z,70.82
2019-03-29T07:35:11.226Z,69.30
2019-03-29T07:41:11.211Z,69.23
2019-03-29T07:47:11.225Z,68.37
2019-03-29T07:53:11.578Z,67.72
2019-03-29T07:59:11.254Z,66.43
2019-03-29T08:08:56.138Z,62.83
2019-03-29T08:14:56.090Z,62.86
2019-03-29T08:20:56.086Z,63.22
2019-03-29T08:26:56.084Z,63.40
2019-03-29T08:32:58.758Z,63.64
2019-03-29T08:38:57.166Z,63.64
2019-03-29T08:44:56.128Z,62.26
2019-03-29T08:50:56.136Z,61.29
2019-03-29T08:56:56.173Z,60.43
2019-03-29T09:02:57.240Z,58.61
2019-03-29T09:08:56.157Z,57.73
2019-03-29T09:14:56.155Z,56.25
2019-03-29T09:20:56.174Z,55.69
2019-03-29T09:26:56.156Z,54.36
2019-03-29T09:32:56.170Z,52.35
2019-03-29T09:38:56.165Z,52.24
2019-03-29T09:44:56.194Z,50.10
2019-03-29T09:50:56.196Z,50.30
2019-03-29T09:56:56.418Z,49.27
2019-03-29T10:02:56.277Z,48.72
2019-03-29T10:08:56.204Z,46.88
2019-03-29T10:14:57.291Z,47.20
2019-03-29T10:20:56.221Z,47.36
2019-03-29T10:26:56.185Z,46.74
2019-03-29T10:32:56.174Z,44.04
2019-03-29T10:38:56.176Z,45.04
2019-03-29T10:44:56.195Z,42.70
2019-03-29T10:50:56.256Z,43.76
2019-03-29T10:56:56.262Z,44.68
2019-03-29T11:02:56.228Z,41.52
2019-03-29T11:08:56.257Z,40.69
2019-03-29T11:14:56.202Z,41.02
2019-03-29T11:20:56.258Z,42.42
2019-03-29T11:26:56.246Z,41.75
2019-03-29T11:32:56.262Z,40.65
2019-03-29T11:38:56.233Z,40.20
2019-03-29T11:44:56.244Z,40.75
2019-03-29T11:50:56.273Z,40.85
2019-03-29T11:56:56.257Z,39.04
2019-03-29T12:02:56.244Z,38.62
2019-03-29T12:08:57.188Z,40.49
2019-03-29T12:14:56.289Z,40.50
2019-03-29T12:20:56.348Z,40.10
2019-03-29T12:26:56.278Z,37.28
2019-03-29T12:32:56.309Z,38.27
2019-03-29T12:38:56.338Z,36.63
2019-03-29T12:44:56.315Z,36.71
2019-03-29T12:50:56.289Z,35.89
2019-03-29T12:56:56.338Z,36.89
2019-03-29T13:02:56.368Z,37.30
2019-03-29T13:08:56.372Z,38.04
2019-03-29T13:14:56.306Z,38.21
2019-03-29T13:20:56.378Z,37.56
2019-03-29T13:26:56.385Z,38.78
2019-03-29T13:32:56.342Z,39.29
2019-03-29T13:38:56.407Z,39.25
2019-03-29T13:44:56.393Z,38.08
2019-03-29T13:50:59.292Z,38.54
2019-03-29T13:56:56.383Z,38.05
2019-03-29T14:02:56.398Z,38.51
2019-03-29T14:08:56.444Z,37.09
2019-03-29T14:14:56.378Z,36.90
2019-03-29T14:20:56.472Z,36.19
2019-03-29T14:26:56.482Z,37.15
2019-03-29T14:32:56.394Z,35.74
2019-03-29T14:38:56.382Z,35.61
2019-03-29T14:44:56.446Z,36.56
2019-03-29T14:50:56.440Z,36.30
2019-03-29T14:56:56.418Z,36.16
2019-03-29T15:02:56.382Z,35.20
2019-03-29T15:08:56.397Z,35.83
2019-03-29T15:15:05.858Z,35.66
2019-03-29T15:20:56.435Z,35.22
2019-03-29T15:26:56.436Z,35.36
2019-03-29T15:32:56.446Z,35.24
2019-03-29T15:38:56.493Z,35.61
2019-03-29T15:44:56.467Z,35.44
2019-03-29T15:50:56.498Z,35.55
2019-03-29T15:56:56.433Z,35.09
2019-03-29T16:02:56.502Z,35.80
2019-03-29T16:08:56.463Z,35.06
2019-03-29T16:14:56.441Z,35.56
2019-03-29T16:20:56.463Z,35.56
2019-03-29T16:26:56.486Z,36.06
2019-03-29T16:32:56.470Z,35.74
2019-03-29T16:38:56.471Z,35.96
2019-03-29T16:44:56.494Z,36.44
2019-03-29T16:50:56.482Z,36.76
2019-03-29T16:56:56.546Z,37.16
2019-03-29T17:02:56.534Z,37.03
2019-03-29T17:08:56.496Z,37.66
2019-03-29T17:14:56.521Z,37.48
2019-03-29T17:20:56.673Z,38.86
2019-03-29T17:26:56.497Z,38.51
2019-03-29T17:32:56.525Z,39.34
2019-03-29T17:38:56.496Z,40.01
2019-03-29T17:44:58.957Z,40.14
2019-03-29T17:50:56.542Z,41.22
2019-03-29T17:56:56.584Z,40.86
2019-03-29T18:02:56.521Z,41.57
2019-03-29T18:08:56.560Z,42.36
2019-03-29T18:14:56.542Z,43.53
2019-03-29T18:20:56.550Z,44.04
2019-03-29T18:26:56.587Z,43.91
2019-03-29T18:32:56.567Z,44.61
2019-03-29T18:38:56.532Z,45.48
2019-03-29T18:44:56.544Z,45.74
2019-03-29T18:50:56.557Z,46.07
2019-03-29T18:56:56.579Z,46.96
2019-03-29T19:02:56.602Z,47.07
2019-03-29T19:08:56.574Z,47.27
2019-03-29T19:14:56.576Z,46.85
2019-03-29T19:20:56.617Z,47.17
2019-03-29T19:26:56.621Z,47.32
2019-03-29T19:32:56.598Z,46.72
2019-03-29T19:38:56.665Z,46.29
2019-03-29T19:44:56.650Z,47.45
2019-03-29T19:50:56.584Z,48.65
2019-03-29T19:56:56.635Z,51.69
2019-03-29T20:02:56.611Z,54.23
2019-03-29T20:08:56.584Z,56.34
2019-03-29T20:14:56.602Z,57.80
2019-03-29T20:20:56.600Z,59.35
2019-03-29T20:26:56.669Z,60.83
2019-03-29T20:32:56.659Z,61.27
2019-03-29T20:38:56.700Z,60.41
2019-03-29T20:44:57.675Z,61.32
2019-03-29T20:50:56.638Z,62.25
2019-03-29T20:56:56.650Z,62.99
2019-03-29T21:02:56.647Z,63.11
2019-03-29T21:08:56.643Z,64.04
2019-03-29T21:14:56.790Z,64.82
2019-03-29T21:20:57.108Z,65.44
2019-03-29T21:26:57.133Z,65.83
2019-03-29T21:32:56.667Z,66.17
2019-03-29T21:38:56.733Z,65.25
2019-03-29T21:44:56.683Z,63.64
2019-03-29T21:50:56.726Z,60.28
2019-03-29T21:56:56.737Z,58.06
2019-03-29T22:02:57.772Z,58.62
2019-03-29T22:08:57.037Z,58.60
2019-03-29T22:14:56.685Z,59.23
2019-03-29T22:20:56.720Z,58.91
2019-03-29T22:26:56.855Z,59.39
2019-03-29T22:32:56.944Z,60.14
2019-03-29T22:38:57.494Z,60.55
2019-03-29T22:44:56.691Z,62.05
2019-03-29T22:50:56.662Z,64.81
2019-03-29T22:56:56.701Z,67.24
2019-03-29T23:02:56.737Z,68.52
2019-03-29T23:08:56.737Z,69.16
2019-03-29T23:14:56.723Z,69.41
2019-03-29T23:20:56.692Z,69.63
2019-03-29T23:26:56.705Z,67.67
2019-03-29T23:32:56.702Z,67.43
2019-03-29T23:38:56.708Z,65.97
2019-03-29T23:44:56.722Z,65.50
2019-03-29T23:50:56.716Z,64.91
2019-03-29T23:56:56.736Z,65.21
